createdAt,value
2022-11-22T00:01:08.823Z,5.2
2022-11-22T00:03:12.453Z,5.2
2022-11-22T00:05:16.095Z,5.1
2022-11-22T00:07:20.010Z,5.4
2022-11-22T00:09:26.688Z,5.1
2022-11-22T00:11:30.056Z,5.1
2022-11-22T00:13:35.240Z,5.2
2022-11-22T00:15:38.836Z,5.3
2022-11-22T00:17:42.509Z,5.3
2022-11-22T00:19:46.156Z,5.3
2022-11-22T00:21:49.767Z,5.2
2022-11-22T00:23:56.442Z,5.2
2022-11-22T00:26:00.109Z,5.3
2022-11-22T00:28:03.764Z,5.3
2022-11-22T00:29:07.135Z,5.2
2022-11-22T00:31:10.771Z,5.3
2022-11-22T00:33:14.419Z,5.3
2022-11-22T00:35:18.077Z,5.2
2022-11-22T00:37:24.739Z,5.4
2022-11-22T00:39:28.724Z,5.2
2022-11-22T00:41:32.037Z,5.3
2022-11-22T00:43:35.726Z,5.3
2022-11-22T00:45:39.343Z,5.4
2022-11-22T00:47:42.974Z,5.4
2022-11-22T00:49:46.604Z,5.4
2022-11-22T00:51:53.303Z,5.3
2022-11-22T00:53:56.927Z,5.2
2022-11-22T00:56:00.608Z,5.4
2022-11-22T00:58:04.242Z,5.4
2022-11-22T01:00:07.872Z,5.2
2022-11-22T01:02:11.522Z,5.2
2022-11-22T01:04:15.132Z,5.3
2022-11-22T01:06:21.875Z,5.5
2022-11-22T01:08:25.455Z,5.3
2022-11-22T01:14:36.397Z,5.2
2022-11-22T01:16:40.002Z,5.5
2022-11-22T01:18:43.704Z,5.3
2022-11-22T01:20:50.365Z,5.4
2022-11-22T01:22:53.985Z,5.2
2022-11-22T01:24:57.634Z,5.5
2022-11-22T01:27:27.880Z,5.6
2022-11-22T01:29:31.667Z,5.5
2022-11-22T01:31:35.139Z,5.5
2022-11-22T01:33:41.834Z,5.6
2022-11-22T01:35:45.467Z,5.5
2022-11-22T01:39:52.790Z,5.7
2022-11-22T01:41:56.381Z,5.6
2022-11-22T01:44:00.106Z,5.6
2022-11-22T01:46:03.680Z,5.6
2022-11-22T01:48:10.360Z,5.7
2022-11-22T01:50:14.031Z,5.6
2022-11-22T01:52:17.733Z,5.8
2022-11-22T01:54:21.311Z,5.6
2022-11-22T01:56:24.965Z,5.6
2022-11-22T01:58:28.596Z,5.8
2022-11-22T02:00:32.237Z,5.7
2022-11-22T02:02:38.958Z,5.6
2022-11-22T02:04:42.607Z,5.7
2022-11-22T02:06:46.229Z,5.7
2022-11-22T02:08:49.882Z,5.8
2022-11-22T02:10:53.512Z,5.8
2022-11-22T02:12:57.117Z,5.8
2022-11-22T02:15:00.789Z,5.6
2022-11-22T02:17:07.480Z,5.8
2022-11-22T02:19:11.139Z,5.8
2022-11-22T02:21:14.736Z,5.8
2022-11-22T02:22:18.104Z,5.7
2022-11-22T02:24:21.721Z,5.7
2022-11-22T02:30:35.694Z,5.9
2022-11-22T02:32:39.313Z,5.6
2022-11-22T02:34:42.955Z,5.7
2022-11-22T02:36:46.619Z,5.8
2022-11-22T02:38:50.223Z,5.8
2022-11-22T02:40:53.869Z,5.6
2022-11-22T02:42:57.496Z,5.5
2022-11-22T02:45:04.283Z,5.6
2022-11-22T02:47:07.863Z,5.6
2022-11-22T02:49:11.515Z,5.5
2022-11-22T02:51:15.163Z,5.6
2022-11-22T02:53:18.814Z,5.5
2022-11-22T02:55:22.460Z,5.4
2022-11-22T02:57:26.089Z,5.4
2022-11-22T02:59:32.809Z,5.4
2022-11-22T03:01:36.528Z,5.3
2022-11-22T03:03:40.092Z,5.3
2022-11-22T03:05:43.720Z,5.4
2022-11-22T03:09:51.030Z,5.3
2022-11-22T03:11:54.665Z,5.4
2022-11-22T03:14:01.346Z,5.3
2022-11-22T03:16:05.026Z,5.4
2022-11-22T03:18:08.660Z,5.2
2022-11-22T03:19:11.977Z,5.3
2022-11-22T03:21:15.683Z,5.3
2022-11-22T03:25:22.953Z,5.5
2022-11-22T03:27:35.659Z,5.5
2022-11-22T03:29:33.340Z,5.4
2022-11-22T03:31:36.929Z,5.4
2022-11-22T03:33:40.621Z,5.4
2022-11-22T03:35:44.225Z,5.5
2022-11-22T03:37:47.885Z,5.5
2022-11-22T03:39:51.564Z,5.5
2022-11-22T03:41:58.239Z,5.5
2022-11-22T03:44:01.886Z,5.5
2022-11-22T03:46:05.557Z,5.6
2022-11-22T03:48:09.187Z,5.6
2022-11-22T03:50:12.851Z,5.8
2022-11-22T03:52:16.478Z,5.7
2022-11-22T03:54:20.105Z,5.6
2022-11-22T03:56:26.849Z,5.6
2022-11-22T03:58:30.500Z,5.6
2022-11-22T04:02:37.784Z,5.8
2022-11-22T04:04:41.417Z,5.8
2022-11-22T04:06:45.061Z,5.7
2022-11-22T04:15:02.715Z,5.8
2022-11-22T04:16:06.096Z,5.8
2022-11-22T04:18:09.759Z,5.8
2022-11-22T04:20:13.357Z,5.7
2022-11-22T04:24:23.683Z,5.6
2022-11-22T04:28:54.063Z,5.6
2022-11-22T04:30:34.617Z,5.7
2022-11-22T04:34:41.932Z,5.6
2022-11-22T04:36:45.498Z,5.4
2022-11-22T04:38:52.238Z,5.4
2022-11-22T04:40:55.922Z,5.6
2022-11-22T04:42:59.542Z,5.5
2022-11-22T04:45:03.201Z,5.6
2022-11-22T04:47:06.832Z,5.4
2022-11-22T04:59:32.085Z,5.2
2022-11-22T05:05:42.622Z,5.3
2022-11-22T05:09:53.115Z,5.4
2022-11-22T05:11:56.621Z,5.3
2022-11-22T05:14:21.122Z,5
2022-11-22T05:16:24.687Z,5
2022-11-22T05:18:28.347Z,4.9
2022-11-22T05:20:35.068Z,5
2022-11-22T05:22:38.710Z,5
2022-11-22T05:24:42.341Z,5.1
2022-11-22T05:28:49.642Z,4.9
2022-11-22T05:35:03.626Z,4.9
2022-11-22T05:37:07.250Z,4.8
2022-11-22T05:39:10.901Z,5
2022-11-22T05:41:14.540Z,4.7
2022-11-22T05:43:18.169Z,4.8
2022-11-22T05:45:21.826Z,4.8
2022-11-22T05:47:25.478Z,4.6
2022-11-22T05:49:32.483Z,4.6
2022-11-22T05:53:39.456Z,4.7
2022-11-22T06:04:00.765Z,4.5
2022-11-22T06:06:04.375Z,4.7
2022-11-22T06:08:08.002Z,4.5
2022-11-22T06:09:12.927Z,4.5
2022-11-22T06:11:16.556Z,4.5
2022-11-22T06:13:20.213Z,4.7
2022-11-22T06:15:23.858Z,4.7
2022-11-22T06:17:30.597Z,4.3
2022-11-22T06:19:34.228Z,4.5
2022-11-22T06:21:37.853Z,4.5
2022-11-22T06:23:41.515Z,4.4
2022-11-22T06:25:45.175Z,4.3
2022-11-22T06:27:48.921Z,4.5
2022-11-22T06:29:52.479Z,4.6
2022-11-22T06:34:02.800Z,4.6
2022-11-22T06:36:06.451Z,4.3
2022-11-22T06:38:10.137Z,4.2
2022-11-22T06:42:17.387Z,4.4
2022-11-22T06:44:21.025Z,4.3
2022-11-22T06:46:27.732Z,4.4
2022-11-22T06:48:31.411Z,4.3
2022-11-22T06:50:35.026Z,4.1
2022-11-22T06:52:38.676Z,4.2
2022-11-22T06:54:42.332Z,4.3
2022-11-22T06:56:45.963Z,4.2
2022-11-22T06:58:49.616Z,4.3
2022-11-22T07:02:59.962Z,4.3
2022-11-22T07:05:24.515Z,4.3
2022-11-22T07:06:07.070Z,4
2022-11-22T07:08:13.753Z,4
2022-11-22T07:12:18.045Z,4.2
2022-11-22T07:16:28.404Z,4.2
2022-11-22T07:18:32.045Z,4.1
2022-11-22T07:20:35.676Z,4.1
2022-11-22T07:22:39.348Z,4.1
2022-11-22T07:24:42.962Z,4.1
2022-11-22T07:26:46.619Z,4.1
2022-11-22T07:28:53.412Z,4.1
2022-11-22T07:30:57.101Z,4.1
2022-11-22T07:37:09.825Z,4.2
2022-11-22T07:43:22.145Z,4.3
2022-11-22T07:45:25.774Z,4.3
2022-11-22T07:47:29.472Z,4.4
2022-11-22T07:49:33.213Z,4.4
2022-11-22T07:51:36.721Z,4.5
2022-11-22T07:53:40.411Z,4.6
2022-11-22T07:59:54.370Z,4.6
2022-11-22T08:01:58.106Z,4.6
2022-11-22T08:03:01.386Z,4.6
2022-11-22T08:05:05.036Z,4.6
2022-11-22T08:07:08.760Z,4.6
2022-11-22T08:09:12.349Z,4.6
2022-11-22T08:13:22.678Z,4.6
2022-11-22T08:15:26.344Z,4.7
2022-11-22T08:17:29.986Z,4.7
2022-11-22T08:19:33.619Z,4.7
2022-11-22T08:21:37.314Z,4.8
2022-11-22T08:23:40.902Z,4.8
2022-11-22T08:25:47.580Z,4.9
2022-11-22T08:27:51.216Z,4.9
2022-11-22T08:29:54.921Z,4.9
2022-11-22T08:31:58.519Z,4.9
2022-11-22T08:34:02.274Z,5
2022-11-22T08:36:05.787Z,5
2022-11-22T08:38:09.464Z,5.1
2022-11-22T08:42:19.790Z,5.1
2022-11-22T08:44:23.470Z,5.1
2022-11-22T08:46:27.118Z,5.2
2022-11-22T08:48:30.749Z,5.2
2022-11-22T08:50:34.402Z,5.2
2022-11-22T08:52:38.009Z,5.3
2022-11-22T08:54:44.722Z,5.3
2022-11-22T08:56:48.380Z,5.3
2022-11-22T08:58:52.114Z,5.4
2022-11-22T09:01:16.343Z,5.5
2022-11-22T09:03:19.856Z,5.5
2022-11-22T09:05:23.719Z,5.5
2022-11-22T09:09:38.054Z,5.4
2022-11-22T09:11:37.486Z,5.4
2022-11-22T09:13:41.130Z,5.5
2022-11-22T09:15:44.782Z,5.5
2022-11-22T09:17:48.430Z,5.5
2022-11-22T09:19:52.068Z,5.6
2022-11-22T09:21:58.788Z,5.7
2022-11-22T09:24:02.462Z,5.7
2022-11-22T09:26:06.101Z,5.8
2022-11-22T09:28:09.755Z,5.9
2022-11-22T09:30:13.345Z,6
2022-11-22T09:32:17.025Z,6.1
2022-11-22T09:34:20.651Z,6.2
2022-11-22T09:36:27.390Z,6.3
2022-11-22T09:38:30.995Z,6.4
2022-11-22T09:40:34.630Z,6.3
2022-11-22T09:42:38.240Z,6.1
2022-11-22T09:44:41.867Z,6.1
2022-11-22T09:46:45.530Z,6.1
2022-11-22T09:48:49.152Z,6
2022-11-22T09:50:55.841Z,6.1
2022-11-22T09:52:59.497Z,6.1
2022-11-22T09:55:03.143Z,6.2
2022-11-22T10:02:19.009Z,6.3
2022-11-22T10:04:24.065Z,6.3
2022-11-22T10:06:27.737Z,6.3
2022-11-22T10:08:31.310Z,6.4
2022-11-22T10:10:34.926Z,6.4
2022-11-22T10:12:38.570Z,6.4
2022-11-22T10:20:56.154Z,6.4
2022-11-22T10:23:00.056Z,6.5
2022-11-22T10:25:03.414Z,6.5
2022-11-22T10:29:10.669Z,6.6
2022-11-22T10:31:14.273Z,6.6
2022-11-22T10:33:21.053Z,6.5
2022-11-22T10:35:24.613Z,6.5
2022-11-22T10:37:28.192Z,6.5
2022-11-22T10:39:34.684Z,6.6
2022-11-22T10:41:35.471Z,6.5
2022-11-22T10:43:39.082Z,6.6
2022-11-22T10:45:42.724Z,6.6
2022-11-22T10:47:49.406Z,6.7
2022-11-22T10:49:53.065Z,6.8
2022-11-22T10:51:56.686Z,6.7
2022-11-22T10:52:59.999Z,6.6
2022-11-22T10:55:03.670Z,6.7
2022-11-22T10:57:07.259Z,6.6
2022-11-22T10:59:10.907Z,6.6
2022-11-22T11:01:17.704Z,6.7
2022-11-22T11:03:21.199Z,6.7
2022-11-22T11:05:25.493Z,6.7
2022-11-22T11:07:29.186Z,6.7
2022-11-22T11:11:36.399Z,6.7
2022-11-22T11:13:40.025Z,6.6
2022-11-22T11:15:50.164Z,6.6
2022-11-22T11:17:50.342Z,6.6
2022-11-22T11:19:53.968Z,6.6
2022-11-22T11:21:57.615Z,6.7
2022-11-22T11:24:01.244Z,6.7
2022-11-22T11:26:04.864Z,6.7
2022-11-22T11:28:08.449Z,6.7
2022-11-22T11:30:15.242Z,6.7
2022-11-22T11:32:18.768Z,6.7
2022-11-22T11:34:22.407Z,6.7
2022-11-22T11:36:26.030Z,6.7
2022-11-22T11:38:29.623Z,6.7
2022-11-22T11:40:33.246Z,6.7
2022-11-22T11:42:36.853Z,6.7
2022-11-22T11:44:43.632Z,6.7
2022-11-22T11:46:47.171Z,6.7
2022-11-22T11:48:50.820Z,6.8
2022-11-22T11:51:57.762Z,6.8
2022-11-22T11:58:16.151Z,7
2022-11-22T12:02:18.972Z,7
2022-11-22T12:06:27.733Z,7.1
2022-11-22T12:08:31.313Z,7.1
2022-11-22T12:10:34.956Z,7.1
2022-11-22T12:12:41.623Z,7.1
2022-11-22T12:20:56.065Z,7
2022-11-22T12:23:00.153Z,7
2022-11-22T12:25:31.015Z,7
2022-11-22T12:27:10.023Z,7
2022-11-22T12:29:13.642Z,7
2022-11-22T12:31:17.244Z,7
2022-11-22T12:33:20.849Z,7.1
2022-11-22T12:35:24.515Z,7.1
2022-11-22T12:37:28.120Z,7.2
2022-11-22T12:39:31.762Z,7.2
2022-11-22T12:41:38.442Z,7.2
2022-11-22T12:43:42.059Z,7.2
2022-11-22T12:48:04.008Z,7.2
2022-11-22T12:50:07.641Z,7.2
2022-11-22T12:52:11.287Z,7.2
2022-11-22T12:54:17.970Z,7.2
2022-11-22T12:56:21.557Z,7.2
2022-11-22T12:58:25.190Z,7.2
2022-11-22T13:00:28.798Z,7.2
2022-11-22T13:02:32.445Z,7.2
2022-11-22T13:04:36.046Z,7.2
2022-11-22T13:06:39.690Z,7.2
2022-11-22T13:08:51.536Z,7.3
2022-11-22T13:10:49.991Z,7.2
2022-11-22T13:12:53.592Z,7.3
2022-11-22T13:14:57.249Z,7.2
2022-11-22T13:17:00.848Z,7.2
2022-11-22T13:19:04.485Z,7.2
2022-11-22T13:21:08.093Z,7.2
2022-11-22T13:23:14.791Z,7.2
2022-11-22T13:27:22.038Z,7.2
2022-11-22T13:29:25.682Z,7.2
2022-11-22T13:33:32.839Z,7.3
2022-11-22T13:37:43.176Z,7.2
2022-11-22T13:39:46.793Z,7.3
2022-11-22T13:41:50.440Z,7.3
2022-11-22T13:42:53.763Z,7.3
2022-11-22T13:44:57.415Z,7.3
2022-11-22T13:47:01.008Z,7.3
2022-11-22T13:49:04.641Z,7.3
2022-11-22T13:51:11.340Z,7.3
2022-11-22T13:53:14.980Z,7.3
2022-11-22T13:57:22.190Z,7.4
2022-11-22T14:01:29.552Z,7.4
2022-11-22T14:03:33.044Z,7.3
2022-11-22T14:07:43.449Z,7.4
2022-11-22T14:11:50.634Z,7.4
2022-11-22T14:18:01.497Z,7.4
2022-11-22T14:20:08.191Z,7.4
2022-11-22T14:22:11.837Z,7.4
2022-11-22T14:28:22.686Z,7.5
2022-11-22T14:30:26.339Z,7.5
2022-11-22T14:36:40.222Z,7.5
2022-11-22T14:39:47.147Z,7.4
2022-11-22T14:41:50.811Z,7.4
2022-11-22T14:43:54.386Z,7.4
2022-11-22T14:46:04.296Z,7.4
2022-11-22T14:48:04.674Z,7.4
2022-11-22T14:50:08.298Z,7.4
2022-11-22T14:52:11.939Z,7.4
2022-11-22T14:54:15.573Z,7.4
2022-11-22T14:56:19.188Z,7.5
2022-11-22T14:58:22.774Z,7.5
2022-11-22T15:02:33.108Z,7.5
2022-11-22T15:09:12.366Z,7.5
2022-11-22T15:09:18.392Z,7.5
2022-11-22T15:09:21.648Z,7.5
2022-11-22T15:12:51.146Z,7.5
2022-11-22T15:14:54.789Z,7.5
2022-11-22T15:57:24.422Z,7.4
2022-11-22T15:59:26.767Z,7.4
2022-11-22T16:01:30.426Z,7.4
2022-11-22T16:03:33.916Z,7.4
2022-11-22T16:06:09.245Z,7.3
2022-11-22T16:07:41.269Z,7.3
2022-11-22T16:09:44.876Z,7.4
2022-11-22T16:13:55.078Z,7.4
2022-11-22T16:18:02.269Z,7.5
2022-11-22T16:20:05.906Z,7.5
2022-11-22T16:24:13.111Z,7.4
2022-11-22T16:26:16.737Z,7.4
2022-11-22T16:28:23.589Z,7.4
2022-11-22T16:30:27.220Z,7.4
2022-11-22T16:36:58.732Z,7.3
2022-11-22T16:39:02.351Z,7.2
2022-11-22T16:41:09.029Z,7.2
2022-11-22T16:43:12.620Z,7.2
2022-11-22T16:45:16.268Z,7.1
2022-11-22T16:47:19.856Z,7.1
2022-11-22T16:49:23.478Z,7.1
2022-11-22T16:51:27.113Z,7
2022-11-22T16:53:30.708Z,7
2022-11-22T16:55:37.389Z,7
2022-11-22T16:57:41.027Z,6.9
2022-11-22T16:59:44.612Z,6.9
2022-11-22T17:01:48.256Z,6.9
2022-11-22T17:03:51.864Z,6.8
2022-11-22T17:05:55.471Z,6.8
2022-11-22T17:10:05.767Z,6.8
2022-11-22T17:12:09.488Z,6.7
2022-11-22T17:14:12.986Z,6.8
2022-11-22T17:16:16.594Z,6.8
2022-11-22T17:24:34.345Z,6.9
2022-11-22T17:26:37.727Z,6.9
2022-11-22T17:28:41.332Z,6.9
2022-11-22T17:29:51.281Z,7
2022-11-22T17:31:48.288Z,6.9
2022-11-22T17:33:51.912Z,7
2022-11-22T17:35:55.506Z,7
2022-11-22T17:38:02.189Z,7
2022-11-22T17:40:05.814Z,6.9
2022-11-22T17:42:09.431Z,6.8
2022-11-22T17:44:13.047Z,6.9
2022-11-22T17:54:34.203Z,6.8
2022-11-22T18:00:45.095Z,6.8
2022-11-22T18:09:04.164Z,6.8
2022-11-22T18:13:21.252Z,6.7
2022-11-22T18:15:15.002Z,6.8
2022-11-22T18:17:18.622Z,6.8
2022-11-22T18:19:22.246Z,6.8
2022-11-22T18:23:32.587Z,6.7
2022-11-22T18:25:36.159Z,7
2022-11-22T18:28:43.133Z,6.9
2022-11-22T18:30:46.729Z,6.9
2022-11-22T18:34:57.057Z,7
2022-11-22T18:37:02.978Z,6.8
2022-11-22T18:39:04.386Z,7
2022-11-22T18:41:07.911Z,7
2022-11-22T18:43:11.534Z,6.9
2022-11-22T18:45:15.135Z,7
2022-11-22T18:47:18.774Z,7.1
2022-11-22T18:49:25.471Z,6.9
2022-11-22T18:51:29.061Z,7
2022-11-22T18:53:32.707Z,7.1
2022-11-22T18:55:36.310Z,6.9
2022-11-22T18:57:39.939Z,7.1
2022-11-22T18:59:43.565Z,7.1
2022-11-22T19:01:47.197Z,7
2022-11-22T19:03:53.890Z,7
2022-11-22T19:05:57.505Z,7
2022-11-22T19:08:01.134Z,7.2
2022-11-22T19:10:04.762Z,7.1
2022-11-22T19:12:08.360Z,7.1
2022-11-22T19:14:11.944Z,7.2
2022-11-22T19:16:15.611Z,7
2022-11-22T19:18:22.285Z,7.1
2022-11-22T19:23:32.828Z,7.2
2022-11-22T19:25:36.444Z,7.1
2022-11-22T19:27:40.084Z,7.1
2022-11-22T19:29:43.795Z,7.2
2022-11-22T19:31:50.399Z,7.2
2022-11-22T19:33:53.998Z,7
2022-11-22T19:35:57.605Z,7.1
2022-11-22T19:38:01.203Z,7.3
2022-11-22T19:40:04.855Z,7.3
2022-11-22T19:42:08.473Z,7.3
2022-11-22T19:44:12.104Z,7.1
2022-11-22T19:46:18.789Z,7.3
2022-11-22T19:48:22.385Z,7.3
2022-11-22T19:50:26.005Z,7.2
2022-11-22T19:52:29.646Z,7.3
2022-11-22T19:54:33.252Z,7.1
2022-11-22T19:56:36.905Z,7.3
2022-11-22T20:09:01.647Z,7.3
2022-11-22T20:13:10.664Z,7.3
2022-11-22T20:17:19.157Z,7.2
2022-11-22T20:19:22.849Z,7.2
2022-11-22T20:21:52.985Z,7.2
2022-11-22T20:23:56.615Z,7.1
2022-11-22T20:32:14.150Z,7.3
2022-11-22T20:34:17.734Z,7
2022-11-22T20:38:25.014Z,7.1
2022-11-22T20:40:28.591Z,7.3
2022-11-22T20:42:35.481Z,7.2
2022-11-22T20:44:38.935Z,7.2
2022-11-22T20:46:42.523Z,7.3
2022-11-22T20:48:46.156Z,7.4
2022-11-22T20:50:49.792Z,7.1
2022-11-22T20:52:53.391Z,7.3
2022-11-22T20:55:01.706Z,7.1
2022-11-22T20:57:03.683Z,7.3
2022-11-22T20:59:07.289Z,7.5
2022-11-22T21:03:14.535Z,7.2
2022-11-22T21:07:21.801Z,7.4
2022-11-22T21:09:25.360Z,7.2
2022-11-22T21:11:32.210Z,7.3
2022-11-22T21:13:35.662Z,7.6
2022-11-22T21:15:39.286Z,7.3
2022-11-22T21:16:43.265Z,7.6
2022-11-22T21:18:46.267Z,7.7
2022-11-22T21:20:49.864Z,7.4
2022-11-22T21:22:53.473Z,7.4
2022-11-22T21:25:00.170Z,7.4
2022-11-22T21:27:03.746Z,7.5
2022-11-22T21:29:10.303Z,7.6
2022-11-22T21:31:10.997Z,7.5
2022-11-22T21:33:14.615Z,7.5
2022-11-22T21:35:18.244Z,7.7
2022-11-22T21:37:21.868Z,7.7
2022-11-22T21:39:28.586Z,7.4
2022-11-22T21:41:39.778Z,7.4
2022-11-22T21:43:35.798Z,7.4
2022-11-22T21:47:43.008Z,7.7
2022-11-22T21:49:46.620Z,7.7
2022-11-22T21:53:56.922Z,7.7
2022-11-22T21:58:04.120Z,7.4
2022-11-22T22:00:07.783Z,7.8
2022-11-22T22:02:11.378Z,7.8
2022-11-22T22:04:14.999Z,7.6
2022-11-22T22:06:18.601Z,7.5
2022-11-22T22:08:25.301Z,7.7
2022-11-22T22:12:32.529Z,7.5
2022-11-22T22:13:35.865Z,7.6
2022-11-22T22:15:39.489Z,7.7
2022-11-22T22:17:43.101Z,7.6
2022-11-22T22:19:46.701Z,7.7
2022-11-22T22:21:53.357Z,7.8
2022-11-22T22:23:56.985Z,7.7
2022-11-22T22:26:00.602Z,7.8
2022-11-22T22:28:04.217Z,7.7
2022-11-22T22:30:07.825Z,7.7
2022-11-22T22:32:11.453Z,7.5
2022-11-22T22:34:15.053Z,7.7
2022-11-22T22:36:21.720Z,7.5
2022-11-22T22:38:25.336Z,7.4
2022-11-22T22:44:36.212Z,7.6
2022-11-22T22:50:50.088Z,7.5
2022-11-22T22:54:57.333Z,7.5
2022-11-22T23:01:08.170Z,7.8
2022-11-22T23:03:11.811Z,7.5
2022-11-22T23:05:18.467Z,7.8
2022-11-22T23:07:22.121Z,7.5
2022-11-22T23:09:25.697Z,7.8
2022-11-22T23:12:32.606Z,7.6
2022-11-22T23:14:36.239Z,7.7
2022-11-22T23:16:39.867Z,7.5
2022-11-22T23:18:46.551Z,7.5
2022-11-22T23:20:50.185Z,7.5
2022-11-22T23:24:57.415Z,7.5
2022-11-22T23:27:01.005Z,7.9
2022-11-22T23:29:04.640Z,7.9
2022-11-22T23:31:08.243Z,7.8
2022-11-22T23:33:14.966Z,7.8
2022-11-22T23:35:18.530Z,7.9
2022-11-22T23:37:22.159Z,7.9
2022-11-22T23:41:29.374Z,7.7
2022-11-22T23:45:36.599Z,7.7
2022-11-22T23:47:43.295Z,7.9
2022-11-22T23:49:46.901Z,7.6
2022-11-22T23:55:57.701Z,7.8
2022-11-22T23:58:01.322Z,7.7
